createdAt,value
2022-12-03T00:00:27.538Z,0.00
2022-12-03T00:01:27.452Z,0.00
2022-12-03T00:02:27.544Z,0.00
2022-12-03T00:03:27.540Z,0.00
2022-12-03T00:04:27.332Z,0.00
2022-12-03T00:05:27.289Z,0.00
2022-12-03T00:06:32.890Z,0.00
2022-12-03T00:07:27.238Z,0.00
2022-12-03T00:08:27.178Z,0.00
2022-12-03T00:09:27.133Z,0.00
2022-12-03T00:10:27.092Z,0.00
2022-12-03T00:11:27.051Z,0.00
2022-12-03T00:12:27.019Z,0.00
2022-12-03T00:13:26.970Z,0.00
2022-12-03T00:14:26.933Z,0.00
2022-12-03T00:15:26.930Z,0.00
2022-12-03T00:16:26.922Z,0.00
2022-12-03T00:17:26.828Z,0.00
2022-12-03T00:18:26.780Z,0.00
2022-12-03T00:19:26.737Z,0.00
2022-12-03T00:20:26.703Z,0.00
2022-12-03T00:21:26.684Z,0.00
2022-12-03T00:22:26.633Z,0.00
2022-12-03T00:23:26.581Z,0.00
2022-12-03T00:24:26.549Z,0.00
2022-12-03T00:25:26.560Z,0.00
2022-12-03T00:26:26.461Z,0.00
2022-12-03T00:27:26.416Z,0.00
2022-12-03T00:28:26.381Z,0.00
2022-12-03T00:29:26.340Z,0.00
2022-12-03T00:30:26.301Z,0.00
2022-12-03T00:31:26.312Z,0.00
2022-12-03T00:32:26.222Z,0.00
2022-12-03T00:33:26.210Z,0.00
2022-12-03T00:34:26.154Z,0.00
2022-12-03T00:35:26.109Z,0.00
2022-12-03T00:36:26.069Z,0.00
2022-12-03T00:37:26.029Z,0.00
2022-12-03T00:38:25.990Z,0.00
2022-12-03T00:39:25.947Z,0.00
2022-12-03T00:40:25.912Z,0.00
2022-12-03T00:41:25.877Z,0.00
2022-12-03T00:42:25.829Z,0.00
2022-12-03T00:43:25.805Z,0.00
2022-12-03T00:44:25.754Z,0.00
2022-12-03T00:45:25.715Z,0.00
2022-12-03T00:46:25.702Z,0.00
2022-12-03T00:47:25.631Z,0.00
2022-12-03T00:48:25.594Z,0.00
2022-12-03T00:49:25.549Z,0.00
2022-12-03T00:50:25.513Z,0.00
2022-12-03T00:51:25.472Z,0.00
2022-12-03T00:52:25.441Z,0.00
2022-12-03T00:53:25.394Z,0.00
2022-12-03T00:54:30.227Z,0.00
2022-12-03T00:55:25.315Z,0.00
2022-12-03T00:56:25.278Z,0.00
2022-12-03T00:57:25.234Z,0.00
2022-12-03T00:58:25.195Z,0.00
2022-12-03T00:59:25.197Z,0.00
2022-12-03T01:00:25.121Z,0.00
2022-12-03T01:01:25.136Z,0.00
2022-12-03T01:02:25.040Z,0.00
2022-12-03T01:03:24.995Z,0.00
2022-12-03T01:04:24.990Z,0.00
2022-12-03T01:05:24.921Z,0.00
2022-12-03T01:06:24.880Z,0.00
2022-12-03T01:07:24.874Z,0.00
2022-12-03T01:08:24.805Z,0.00
2022-12-03T01:09:24.760Z,0.00
2022-12-03T01:10:24.724Z,0.00
2022-12-03T01:11:24.682Z,0.00
2022-12-03T01:12:24.654Z,0.00
2022-12-03T01:13:24.603Z,0.00
2022-12-03T01:14:24.561Z,0.00
2022-12-03T01:15:24.522Z,0.00
2022-12-03T01:16:24.580Z,0.00
2022-12-03T01:17:24.441Z,0.00
2022-12-03T01:18:24.404Z,0.00
2022-12-03T01:19:24.367Z,0.00
2022-12-03T01:20:24.329Z,0.00
2022-12-03T01:21:24.281Z,0.00
2022-12-03T01:22:24.250Z,0.00
2022-12-03T01:23:24.204Z,0.00
2022-12-03T01:24:24.164Z,0.00
2022-12-03T01:25:24.122Z,0.00
2022-12-03T01:26:24.086Z,0.00
2022-12-03T01:27:24.044Z,0.00
2022-12-03T01:28:24.013Z,0.00
2022-12-03T01:29:23.983Z,0.00
2022-12-03T01:30:23.931Z,0.00
2022-12-03T01:31:23.971Z,0.00
2022-12-03T01:32:23.846Z,0.00
2022-12-03T01:33:23.808Z,0.00
2022-12-03T01:34:23.771Z,0.00
2022-12-03T01:35:23.731Z,0.00
2022-12-03T01:36:23.691Z,0.00
2022-12-03T01:37:23.655Z,0.00
2022-12-03T01:38:23.612Z,0.00
2022-12-03T01:39:23.572Z,0.00
2022-12-03T01:40:23.537Z,0.00
2022-12-03T01:41:23.499Z,0.00
2022-12-03T01:42:23.455Z,0.00
2022-12-03T01:43:23.414Z,0.00
2022-12-03T01:44:23.371Z,0.00
2022-12-03T01:45:23.340Z,0.00
2022-12-03T01:46:23.397Z,0.00
2022-12-03T01:47:23.268Z,0.00
2022-12-03T01:48:23.217Z,0.00
2022-12-03T01:49:23.173Z,0.00
2022-12-03T01:50:23.153Z,0.00
2022-12-03T01:51:23.100Z,0.00
2022-12-03T01:52:23.059Z,0.00
2022-12-03T01:53:23.023Z,0.00
2022-12-03T01:54:22.973Z,0.00
2022-12-03T01:55:22.935Z,0.00
2022-12-03T01:56:22.906Z,0.00
2022-12-03T01:57:22.860Z,0.00
2022-12-03T01:58:22.821Z,0.00
2022-12-03T01:59:22.778Z,0.00
2022-12-03T02:00:22.746Z,0.00
2022-12-03T02:01:22.775Z,0.00
2022-12-03T02:02:22.662Z,0.00
2022-12-03T02:03:22.618Z,0.00
2022-12-03T02:04:22.649Z,0.00
2022-12-03T02:05:22.557Z,0.00
2022-12-03T02:06:22.505Z,0.00
2022-12-03T02:07:22.462Z,0.00
2022-12-03T02:08:22.422Z,0.00
2022-12-03T02:09:22.381Z,0.00
2022-12-03T02:10:22.355Z,0.00
2022-12-03T02:11:22.305Z,0.00
2022-12-03T02:12:22.271Z,0.00
2022-12-03T02:13:22.226Z,0.00
2022-12-03T02:14:22.186Z,0.00
2022-12-03T02:15:22.149Z,0.00
2022-12-03T02:16:22.258Z,0.00
2022-12-03T02:17:22.074Z,0.00
2022-12-03T02:18:22.033Z,0.00
2022-12-03T02:19:21.991Z,0.00
2022-12-03T02:20:21.950Z,0.00
2022-12-03T02:21:21.921Z,0.00
2022-12-03T02:22:21.876Z,0.00
2022-12-03T02:23:21.837Z,0.00
2022-12-03T02:24:21.791Z,0.00
2022-12-03T02:25:21.752Z,0.00
2022-12-03T02:26:21.728Z,0.00
2022-12-03T02:27:21.676Z,0.00
2022-12-03T02:28:21.635Z,0.00
2022-12-03T02:29:21.596Z,0.00
2022-12-03T02:30:21.557Z,0.00
2022-12-03T02:31:21.552Z,0.00
2022-12-03T02:32:21.476Z,0.00
2022-12-03T02:33:21.481Z,0.00
2022-12-03T02:34:21.399Z,0.00
2022-12-03T02:35:21.361Z,0.00
2022-12-03T02:36:21.323Z,0.00
2022-12-03T02:37:21.277Z,0.00
2022-12-03T02:38:21.240Z,0.00
2022-12-03T02:39:21.197Z,0.00
2022-12-03T02:40:21.160Z,0.00
2022-12-03T02:41:21.121Z,0.00
2022-12-03T02:42:21.099Z,0.00
2022-12-03T02:43:21.035Z,0.00
2022-12-03T02:44:21.004Z,0.00
2022-12-03T02:45:20.961Z,0.00
2022-12-03T02:46:20.923Z,0.00
2022-12-03T02:47:20.879Z,0.00
2022-12-03T02:48:20.852Z,0.00
2022-12-03T02:49:20.808Z,0.00
2022-12-03T02:50:20.763Z,0.00
2022-12-03T02:51:20.721Z,0.00
2022-12-03T02:52:20.681Z,0.00
2022-12-03T02:53:20.643Z,0.00
2022-12-03T02:54:20.605Z,0.00
2022-12-03T02:55:20.565Z,0.00
2022-12-03T02:56:20.535Z,0.00
2022-12-03T02:57:20.483Z,0.00
2022-12-03T02:58:20.442Z,0.00
2022-12-03T02:59:20.408Z,0.00
2022-12-03T03:00:20.370Z,0.00
2022-12-03T03:01:20.404Z,0.00
2022-12-03T03:02:20.348Z,0.00
2022-12-03T03:03:20.248Z,0.00
2022-12-03T03:04:20.214Z,0.00
2022-12-03T03:05:20.169Z,0.00
2022-12-03T03:06:20.125Z,0.00
2022-12-03T03:07:20.088Z,0.00
2022-12-03T03:08:20.175Z,0.00
2022-12-03T03:09:20.010Z,0.00
2022-12-03T03:10:19.967Z,0.00
2022-12-03T03:11:19.941Z,0.00
2022-12-03T03:12:19.938Z,0.00
2022-12-03T03:13:19.857Z,0.00
2022-12-03T03:14:19.813Z,0.00
2022-12-03T03:15:19.774Z,0.00
2022-12-03T03:16:19.812Z,0.00
2022-12-03T03:17:19.696Z,0.00
2022-12-03T03:18:19.653Z,0.00
2022-12-03T03:19:19.618Z,0.00
2022-12-03T03:20:19.602Z,0.00
2022-12-03T03:21:19.535Z,0.00
2022-12-03T03:22:19.496Z,0.00
2022-12-03T03:23:19.456Z,0.00
2022-12-03T03:24:19.417Z,0.00
2022-12-03T03:25:19.378Z,0.00
2022-12-03T03:26:19.342Z,0.00
2022-12-03T03:27:19.300Z,0.00
2022-12-03T03:28:19.263Z,0.00
2022-12-03T03:29:19.222Z,0.00
2022-12-03T03:30:19.184Z,0.00
2022-12-03T03:31:19.180Z,0.00
2022-12-03T03:32:19.101Z,0.00
2022-12-03T03:33:19.062Z,0.00
2022-12-03T03:34:19.024Z,0.00
2022-12-03T03:35:18.980Z,0.00
2022-12-03T03:36:18.947Z,0.00
2022-12-03T03:37:18.900Z,0.00
2022-12-03T03:38:18.861Z,0.00
2022-12-03T03:39:18.823Z,0.00
2022-12-03T03:40:18.788Z,0.00
2022-12-03T03:41:18.743Z,0.00
2022-12-03T03:42:18.706Z,0.00
2022-12-03T03:43:18.666Z,0.00
2022-12-03T03:44:18.628Z,0.00
2022-12-03T03:45:21.552Z,0.00
2022-12-03T03:46:18.643Z,0.00
2022-12-03T03:47:18.510Z,0.00
2022-12-03T03:48:18.486Z,0.00
2022-12-03T03:49:18.431Z,0.00
2022-12-03T03:50:18.387Z,0.00
2022-12-03T03:51:18.349Z,0.00
2022-12-03T03:52:18.313Z,0.00
2022-12-03T03:53:18.270Z,0.00
2022-12-03T03:54:18.230Z,0.00
2022-12-03T03:55:18.193Z,0.00
2022-12-03T03:56:18.158Z,0.00
2022-12-03T03:57:18.114Z,0.00
2022-12-03T03:58:18.076Z,0.00
2022-12-03T03:59:18.032Z,0.00
2022-12-03T04:00:17.990Z,0.00
2022-12-03T04:01:18.052Z,0.00
2022-12-03T04:02:17.917Z,0.00
2022-12-03T04:03:17.872Z,0.00
2022-12-03T04:04:17.887Z,0.00
2022-12-03T04:05:17.793Z,0.00
2022-12-03T04:06:17.757Z,0.00
2022-12-03T04:07:17.712Z,0.00
2022-12-03T04:08:17.779Z,0.00
2022-12-03T04:09:17.638Z,0.00
2022-12-03T04:10:17.598Z,0.00
2022-12-03T04:11:17.558Z,0.00
2022-12-03T04:12:17.517Z,0.00
2022-12-03T04:13:17.480Z,0.00
2022-12-03T04:14:17.440Z,0.00
2022-12-03T04:15:17.427Z,0.00
2022-12-03T04:16:17.399Z,0.00
2022-12-03T04:17:17.318Z,0.00
2022-12-03T04:18:17.287Z,0.00
2022-12-03T04:19:17.242Z,0.00
2022-12-03T04:20:17.204Z,0.00
2022-12-03T04:21:17.168Z,0.00
2022-12-03T04:22:17.126Z,0.00
2022-12-03T04:23:17.088Z,0.00
2022-12-03T04:24:17.044Z,0.00
2022-12-03T04:25:17.004Z,0.00
2022-12-03T04:26:16.963Z,0.00
2022-12-03T04:27:16.922Z,0.00
2022-12-03T04:28:16.886Z,0.00
2022-12-03T04:29:16.850Z,0.00
2022-12-03T04:30:16.811Z,0.00
2022-12-03T04:31:16.793Z,0.00
2022-12-03T04:32:16.728Z,0.00
2022-12-03T04:33:16.688Z,0.00
2022-12-03T04:34:16.680Z,0.00
2022-12-03T04:35:16.771Z,0.00
2022-12-03T04:36:16.572Z,0.00
2022-12-03T04:37:16.534Z,0.00
2022-12-03T04:38:16.495Z,0.00
2022-12-03T04:39:16.452Z,0.00
2022-12-03T04:40:16.420Z,0.00
2022-12-03T04:41:16.375Z,0.00
2022-12-03T04:42:16.337Z,0.00
2022-12-03T04:43:16.292Z,0.00
2022-12-03T04:44:16.291Z,0.00
2022-12-03T04:45:16.214Z,0.00
2022-12-03T04:46:16.306Z,0.00
2022-12-03T04:47:16.153Z,0.00
2022-12-03T04:48:16.098Z,0.00
2022-12-03T04:49:16.061Z,0.00
2022-12-03T04:50:16.020Z,0.00
2022-12-03T04:51:15.985Z,0.00
2022-12-03T04:52:15.949Z,0.00
2022-12-03T04:53:15.902Z,0.00
2022-12-03T04:54:15.858Z,0.00
2022-12-03T04:55:15.818Z,0.00
2022-12-03T04:56:15.785Z,0.00
2022-12-03T04:57:15.775Z,0.00
2022-12-03T04:58:15.705Z,0.00
2022-12-03T04:59:16.454Z,0.00
2022-12-03T05:00:15.623Z,0.00
2022-12-03T05:01:15.677Z,0.00
2022-12-03T05:02:15.600Z,0.00
2022-12-03T05:03:15.531Z,0.00
2022-12-03T05:04:15.469Z,0.00
2022-12-03T05:05:15.430Z,0.00
2022-12-03T05:06:15.385Z,0.00
2022-12-03T05:07:15.352Z,0.00
2022-12-03T05:08:15.343Z,0.00
2022-12-03T05:09:15.267Z,0.00
2022-12-03T05:10:15.226Z,0.00
2022-12-03T05:11:15.187Z,0.00
2022-12-03T05:12:15.149Z,0.00
2022-12-03T05:13:15.116Z,0.00
2022-12-03T05:14:15.089Z,0.00
2022-12-03T05:15:15.034Z,0.00
2022-12-03T05:16:15.016Z,0.00
2022-12-03T05:17:14.954Z,0.00
2022-12-03T05:18:14.916Z,0.00
2022-12-03T05:19:14.876Z,0.00
2022-12-03T05:20:14.835Z,0.00
2022-12-03T05:21:14.795Z,0.00
2022-12-03T05:22:14.760Z,0.00
2022-12-03T05:23:14.716Z,0.00
2022-12-03T05:24:14.684Z,0.00
2022-12-03T05:25:14.640Z,0.00
2022-12-03T05:26:14.595Z,0.00
2022-12-03T05:27:18.762Z,0.00
2022-12-03T05:28:14.528Z,0.00
2022-12-03T05:29:14.481Z,0.00
2022-12-03T05:30:14.456Z,0.00
2022-12-03T05:31:14.496Z,0.00
2022-12-03T05:32:14.367Z,0.00
2022-12-03T05:33:14.324Z,0.00
2022-12-03T05:34:14.280Z,0.00
2022-12-03T05:35:14.244Z,0.00
2022-12-03T05:36:14.206Z,0.00
2022-12-03T05:37:14.213Z,0.00
2022-12-03T05:38:14.126Z,0.00
2022-12-03T05:39:14.084Z,0.00
2022-12-03T05:40:14.047Z,0.00
2022-12-03T05:41:14.007Z,0.00
2022-12-03T05:42:13.964Z,0.00
2022-12-03T05:43:13.948Z,0.00
2022-12-03T05:44:18.823Z,0.00
2022-12-03T05:45:13.846Z,0.00
2022-12-03T05:46:13.889Z,0.00
2022-12-03T05:47:13.771Z,0.00
2022-12-03T05:48:13.734Z,0.00
2022-12-03T05:49:13.696Z,0.00
2022-12-03T05:50:13.649Z,0.00
2022-12-03T05:51:13.623Z,0.00
2022-12-03T05:52:13.604Z,0.00
2022-12-03T05:53:13.536Z,0.00
2022-12-03T05:54:13.492Z,0.00
2022-12-03T05:55:13.455Z,0.00
2022-12-03T05:56:13.412Z,0.00
2022-12-03T05:57:13.379Z,0.00
2022-12-03T05:58:13.336Z,0.00
2022-12-03T05:59:13.297Z,0.00
2022-12-03T06:00:13.293Z,0.00
2022-12-03T06:01:13.219Z,0.00
2022-12-03T06:02:13.353Z,0.00
2022-12-03T06:03:13.316Z,0.00
2022-12-03T06:04:13.103Z,0.00
2022-12-03T06:05:13.065Z,0.00
2022-12-03T06:06:13.022Z,0.00
2022-12-03T06:07:14.316Z,0.00
2022-12-03T06:08:12.979Z,0.00
2022-12-03T06:09:12.909Z,0.00
2022-12-03T06:10:12.860Z,0.00
2022-12-03T06:11:12.826Z,0.00
2022-12-03T06:12:12.785Z,0.00
2022-12-03T06:13:12.747Z,0.00
2022-12-03T06:14:12.705Z,0.00
2022-12-03T06:15:12.684Z,0.00
2022-12-03T06:16:12.740Z,0.00
2022-12-03T06:17:12.585Z,0.00
2022-12-03T06:18:12.550Z,0.00
2022-12-03T06:19:12.507Z,0.00
2022-12-03T06:20:12.468Z,0.00
2022-12-03T06:21:12.428Z,0.00
2022-12-03T06:22:12.401Z,0.00
2022-12-03T06:23:12.348Z,0.00
2022-12-03T06:24:12.312Z,0.00
2022-12-03T06:25:12.276Z,0.00
2022-12-03T06:26:12.232Z,0.00
2022-12-03T06:27:12.191Z,0.00
2022-12-03T06:28:12.148Z,0.00
2022-12-03T06:29:12.116Z,0.00
2022-12-03T06:30:12.073Z,0.00
2022-12-03T06:31:12.071Z,0.00
2022-12-03T06:32:11.996Z,0.00
2022-12-03T06:33:11.952Z,0.00
2022-12-03T06:34:11.914Z,0.00
2022-12-03T06:35:11.878Z,0.00
2022-12-03T06:36:11.836Z,0.00
2022-12-03T06:37:11.799Z,0.00
2022-12-03T06:38:11.808Z,0.00
2022-12-03T06:39:11.718Z,0.00
2022-12-03T06:40:11.679Z,0.00
2022-12-03T06:41:11.640Z,0.00
2022-12-03T06:42:11.611Z,0.00
2022-12-03T06:43:11.567Z,0.00
2022-12-03T06:44:11.518Z,0.00
2022-12-03T06:45:11.485Z,0.00
2022-12-03T06:46:11.490Z,0.00
2022-12-03T06:47:11.414Z,0.00
2022-12-03T06:48:11.367Z,0.00
2022-12-03T06:49:11.323Z,0.00
2022-12-03T06:50:11.283Z,0.00
2022-12-03T06:51:11.245Z,0.00
2022-12-03T06:52:11.205Z,0.00
2022-12-03T06:53:11.173Z,0.00
2022-12-03T06:54:11.128Z,0.00
2022-12-03T06:55:11.085Z,0.00
2022-12-03T06:56:11.043Z,0.00
2022-12-03T06:57:11.005Z,0.00
2022-12-03T06:58:10.966Z,4.00
2022-12-03T06:59:10.927Z,4.00
2022-12-03T07:00:10.898Z,0.00
2022-12-03T07:01:10.902Z,4.00
2022-12-03T07:02:10.885Z,4.00
2022-12-03T07:03:10.859Z,0.00
2022-12-03T07:04:10.731Z,4.00
2022-12-03T07:05:10.729Z,4.00
2022-12-03T07:07:10.615Z,8.00
2022-12-03T07:08:10.621Z,4.00
2022-12-03T07:09:10.537Z,8.00
2022-12-03T07:10:10.494Z,8.00
2022-12-03T07:11:10.450Z,4.00
2022-12-03T07:12:10.416Z,8.00
2022-12-03T07:13:10.374Z,8.00
2022-12-03T07:14:10.333Z,12.00
2022-12-03T07:15:10.295Z,8.00
2022-12-03T07:16:10.296Z,12.00
2022-12-03T07:17:10.219Z,12.00
2022-12-03T07:18:10.181Z,12.00
2022-12-03T07:19:10.148Z,16.00
2022-12-03T07:20:10.112Z,16.00
2022-12-03T07:21:10.061Z,16.00
2022-12-03T07:22:10.031Z,16.00
2022-12-03T07:23:09.984Z,16.00
2022-12-03T07:24:09.948Z,20.00
2022-12-03T07:25:09.905Z,16.00
2022-12-03T07:26:09.873Z,16.00
2022-12-03T07:27:09.825Z,20.00
2022-12-03T07:28:09.790Z,20.00
2022-12-03T07:29:09.748Z,20.00
2022-12-03T07:30:09.708Z,20.00
2022-12-03T07:31:09.846Z,24.00
2022-12-03T07:32:09.627Z,20.00
2022-12-03T07:33:09.585Z,24.00
2022-12-03T07:34:09.544Z,24.00
2022-12-03T07:35:09.507Z,24.00
2022-12-03T07:36:09.477Z,24.00
2022-12-03T07:37:09.432Z,28.00
2022-12-03T07:38:09.397Z,24.00
2022-12-03T07:39:09.354Z,28.00
2022-12-03T07:40:09.319Z,28.00
2022-12-03T07:41:09.292Z,28.00
2022-12-03T07:42:09.237Z,32.00
2022-12-03T07:43:09.189Z,32.00
2022-12-03T07:44:14.069Z,36.00
2022-12-03T07:45:09.115Z,40.00
2022-12-03T07:46:09.167Z,44.00
2022-12-03T07:47:09.140Z,48.00
2022-12-03T07:48:09.000Z,52.00
2022-12-03T07:49:08.961Z,52.00
2022-12-03T07:50:08.920Z,56.00
2022-12-03T07:51:14.255Z,56.00
2022-12-03T07:52:08.851Z,60.00
2022-12-03T07:53:08.797Z,60.00
2022-12-03T07:54:08.758Z,64.00
2022-12-03T07:55:08.719Z,68.00
2022-12-03T07:56:08.686Z,72.00
2022-12-03T07:57:08.643Z,72.00
2022-12-03T07:58:08.601Z,76.00
2022-12-03T07:59:08.561Z,80.00
2022-12-03T08:00:08.532Z,88.00
2022-12-03T08:01:08.563Z,92.00
2022-12-03T08:02:08.537Z,92.00
2022-12-03T08:03:08.410Z,96.00
2022-12-03T08:04:08.368Z,96.00
2022-12-03T08:05:08.346Z,92.00
2022-12-03T08:06:08.283Z,88.00
2022-12-03T08:07:08.252Z,80.00
2022-12-03T08:08:08.300Z,76.00
2022-12-03T08:09:10.950Z,72.00
2022-12-03T08:10:08.128Z,72.00
2022-12-03T08:11:08.097Z,68.00
2022-12-03T08:12:08.057Z,64.00
2022-12-03T08:13:08.008Z,64.00
2022-12-03T08:14:07.974Z,60.00
2022-12-03T08:15:07.935Z,60.00
2022-12-03T08:16:07.927Z,60.00
2022-12-03T08:17:07.850Z,60.00
2022-12-03T08:18:07.809Z,60.00
2022-12-03T08:19:07.780Z,56.00
2022-12-03T08:20:07.743Z,56.00
2022-12-03T08:21:07.699Z,60.00
2022-12-03T08:22:07.657Z,60.00
2022-12-03T08:23:07.623Z,60.00
2022-12-03T08:24:07.581Z,60.00
2022-12-03T08:25:07.540Z,64.00
2022-12-03T08:26:07.506Z,64.00
2022-12-03T08:27:07.500Z,64.00
2022-12-03T08:28:07.423Z,64.00
2022-12-03T08:29:07.382Z,64.00
2022-12-03T08:30:07.342Z,64.00
2022-12-03T08:31:07.370Z,64.00
2022-12-03T08:32:07.318Z,68.00
2022-12-03T08:33:07.220Z,72.00
2022-12-03T08:34:07.187Z,72.00
2022-12-03T08:35:07.141Z,76.00
2022-12-03T08:36:07.104Z,80.00
2022-12-03T08:37:07.062Z,84.00
2022-12-03T08:38:07.029Z,92.00
2022-12-03T08:39:06.984Z,96.00
2022-12-03T08:40:06.953Z,104.00
2022-12-03T08:41:06.910Z,108.00
2022-12-03T08:42:10.708Z,116.00
2022-12-03T08:43:06.828Z,132.00
2022-12-03T08:44:06.792Z,140.00
2022-12-03T08:45:06.753Z,152.00
2022-12-03T08:46:06.814Z,156.00
2022-12-03T08:47:06.673Z,156.00
2022-12-03T08:48:06.633Z,156.00
2022-12-03T08:49:06.588Z,148.00
2022-12-03T08:50:06.552Z,144.00
2022-12-03T08:51:06.514Z,140.00
2022-12-03T08:52:06.478Z,144.00
2022-12-03T08:53:06.435Z,144.00
2022-12-03T08:54:06.392Z,148.00
2022-12-03T08:55:06.359Z,156.00
2022-12-03T08:56:06.318Z,164.00
2022-12-03T08:57:06.277Z,172.00
2022-12-03T08:58:06.242Z,176.00
2022-12-03T08:59:06.197Z,180.00
2022-12-03T09:00:06.161Z,184.00
2022-12-03T09:01:06.191Z,188.00
2022-12-03T09:02:06.091Z,192.00
2022-12-03T09:03:06.039Z,204.00
2022-12-03T09:04:06.020Z,224.00
2022-12-03T09:05:05.963Z,244.00
2022-12-03T09:06:05.931Z,276.00
2022-12-03T09:07:05.891Z,296.00
2022-12-03T09:08:05.876Z,308.00
2022-12-03T09:09:06.995Z,316.00
2022-12-03T09:10:05.767Z,312.00
2022-12-03T09:11:05.721Z,304.00
2022-12-03T09:12:05.685Z,288.00
2022-12-03T09:13:05.647Z,276.00
2022-12-03T09:14:05.606Z,264.00
2022-12-03T09:15:05.570Z,248.00
2022-12-03T09:16:05.609Z,228.00
2022-12-03T09:17:05.550Z,216.00
2022-12-03T09:18:05.447Z,208.00
2022-12-03T09:19:05.406Z,200.00
2022-12-03T09:20:05.381Z,204.00
2022-12-03T09:21:05.329Z,212.00
2022-12-03T09:22:05.298Z,220.00
2022-12-03T09:23:05.251Z,216.00
2022-12-03T09:24:05.211Z,216.00
2022-12-03T09:25:05.178Z,228.00
2022-12-03T09:26:05.135Z,232.00
2022-12-03T09:27:05.094Z,236.00
2022-12-03T09:28:05.053Z,236.00
2022-12-03T09:29:10.457Z,232.00
2022-12-03T09:30:04.975Z,236.00
2022-12-03T09:31:04.934Z,236.00
2022-12-03T09:32:04.975Z,236.00
2022-12-03T09:33:04.857Z,232.00
2022-12-03T09:34:04.819Z,232.00
2022-12-03T09:35:04.777Z,240.00
2022-12-03T09:36:04.741Z,252.00
2022-12-03T09:37:04.703Z,256.00
2022-12-03T09:38:04.661Z,268.00
2022-12-03T09:39:04.618Z,284.00
2022-12-03T09:40:04.581Z,292.00
2022-12-03T09:41:04.544Z,288.00
2022-12-03T09:42:04.501Z,280.00
2022-12-03T09:43:04.466Z,268.00
2022-12-03T09:44:05.600Z,260.00
2022-12-03T09:45:04.383Z,264.00
2022-12-03T09:46:04.446Z,268.00
2022-12-03T09:47:04.308Z,272.00
2022-12-03T09:48:04.270Z,268.00
2022-12-03T09:49:04.232Z,272.00
2022-12-03T09:50:04.189Z,276.00
2022-12-03T09:51:04.150Z,288.00
2022-12-03T09:52:04.124Z,296.00
2022-12-03T09:53:04.083Z,304.00
2022-12-03T09:54:04.031Z,304.00
2022-12-03T09:55:03.991Z,304.00
2022-12-03T09:56:03.951Z,308.00
2022-12-03T09:57:03.989Z,304.00
2022-12-03T09:58:03.871Z,300.00
2022-12-03T09:59:03.870Z,300.00
2022-12-03T10:00:03.801Z,300.00
2022-12-03T10:01:03.835Z,308.00
2022-12-03T10:02:03.797Z,320.00
2022-12-03T10:03:03.679Z,332.00
2022-12-03T10:04:03.698Z,348.00
2022-12-03T10:05:03.683Z,364.00
2022-12-03T10:06:03.565Z,372.00
2022-12-03T10:07:03.526Z,384.00
2022-12-03T10:08:03.550Z,400.00
2022-12-03T10:09:03.443Z,424.00
2022-12-03T10:10:03.402Z,444.00
2022-12-03T10:11:03.379Z,460.00
2022-12-03T10:12:03.332Z,468.00
2022-12-03T10:13:03.285Z,468.00
2022-12-03T10:14:03.278Z,476.00
2022-12-03T10:15:03.220Z,484.00
2022-12-03T10:16:03.172Z,504.00
2022-12-03T10:17:03.220Z,524.00
2022-12-03T10:18:03.094Z,560.00
2022-12-03T10:19:03.059Z,600.00
2022-12-03T10:20:03.066Z,628.00
2022-12-03T10:21:02.976Z,644.00
2022-12-03T10:22:02.941Z,668.00
2022-12-03T10:23:02.895Z,688.00
2022-12-03T10:24:02.874Z,712.00
2022-12-03T10:25:02.818Z,732.00
2022-12-03T10:26:02.775Z,748.00
2022-12-03T10:27:02.735Z,744.00
2022-12-03T10:28:02.705Z,724.00
2022-12-03T10:29:02.664Z,700.00
2022-12-03T10:30:02.620Z,664.00
2022-12-03T10:31:02.662Z,624.00
2022-12-03T10:32:02.544Z,596.00
2022-12-03T10:33:02.562Z,584.00
2022-12-03T10:34:02.461Z,592.00
2022-12-03T10:35:02.426Z,600.00
2022-12-03T10:36:02.402Z,584.00
2022-12-03T10:37:02.351Z,580.00
2022-12-03T10:38:02.308Z,568.00
2022-12-03T10:39:02.266Z,556.00
2022-12-03T10:40:02.241Z,548.00
2022-12-03T10:41:02.199Z,548.00
2022-12-03T10:42:02.154Z,548.00
2022-12-03T10:43:02.115Z,548.00
2022-12-03T10:44:02.072Z,556.00
2022-12-03T10:45:02.036Z,580.00
2022-12-03T10:46:04.122Z,608.00
2022-12-03T10:47:02.013Z,628.00
2022-12-03T10:48:01.917Z,636.00
2022-12-03T10:49:01.881Z,628.00
2022-12-03T10:50:01.841Z,616.00
2022-12-03T10:51:01.796Z,604.00
2022-12-03T10:52:01.762Z,596.00
2022-12-03T10:53:01.726Z,596.00
2022-12-03T10:54:01.685Z,612.00
2022-12-03T10:55:01.646Z,628.00
2022-12-03T10:56:01.609Z,640.00
2022-12-03T10:57:01.576Z,628.00
2022-12-03T10:58:01.530Z,608.00
2022-12-03T10:59:01.489Z,592.00
2022-12-03T11:00:01.466Z,584.00
2022-12-03T11:01:01.487Z,596.00
2022-12-03T11:02:01.448Z,604.00
2022-12-03T11:03:01.334Z,624.00
2022-12-03T11:04:01.384Z,644.00
2022-12-03T11:05:01.259Z,660.00
2022-12-03T11:06:01.221Z,680.00
2022-12-03T11:07:01.178Z,708.00
2022-12-03T11:08:01.224Z,748.00
2022-12-03T11:09:05.439Z,776.00
2022-12-03T11:10:01.060Z,788.00
2022-12-03T11:11:01.032Z,788.00
2022-12-03T11:12:00.995Z,776.00
2022-12-03T11:13:00.948Z,756.00
2022-12-03T11:14:00.908Z,748.00
2022-12-03T11:15:00.866Z,752.00
2022-12-03T11:16:00.927Z,772.00
2022-12-03T11:17:00.819Z,788.00
2022-12-03T11:18:00.752Z,792.00
2022-12-03T11:19:00.720Z,800.00
2022-12-03T11:20:00.684Z,796.00
2022-12-03T11:21:00.641Z,788.00
2022-12-03T11:22:00.599Z,780.00
2022-12-03T11:23:00.561Z,752.00
2022-12-03T11:24:00.564Z,716.00
2022-12-03T11:25:00.480Z,684.00
2022-12-03T11:26:00.441Z,660.00
2022-12-03T11:27:00.407Z,652.00
2022-12-03T11:28:00.363Z,660.00
2022-12-03T11:29:00.327Z,672.00
2022-12-03T11:30:00.378Z,676.00
2022-12-03T11:31:00.307Z,660.00
2022-12-03T11:32:00.269Z,636.00
2022-12-03T11:33:00.180Z,624.00
2022-12-03T11:34:00.127Z,632.00
2022-12-03T11:35:00.098Z,644.00
2022-12-03T11:36:00.072Z,652.00
2022-12-03T11:37:01.961Z,656.00
2022-12-03T11:37:59.985Z,664.00
2022-12-03T11:38:59.983Z,672.00
2022-12-03T11:39:59.906Z,668.00
2022-12-03T11:40:59.856Z,656.00
2022-12-03T11:41:59.818Z,648.00
2022-12-03T11:42:59.779Z,644.00
2022-12-03T11:43:59.741Z,640.00
2022-12-03T11:44:59.703Z,636.00
2022-12-03T11:46:04.111Z,628.00
2022-12-03T11:46:59.684Z,616.00
2022-12-03T11:47:59.600Z,604.00
2022-12-03T11:48:59.550Z,592.00
2022-12-03T11:49:59.514Z,596.00
2022-12-03T11:50:59.474Z,584.00
2022-12-03T11:51:59.439Z,572.00
2022-12-03T11:52:59.401Z,552.00
2022-12-03T11:53:59.363Z,520.00
2022-12-03T11:54:59.323Z,504.00
2022-12-03T11:56:04.194Z,484.00
2022-12-03T11:56:59.242Z,468.00
2022-12-03T11:57:59.214Z,448.00
2022-12-03T11:58:59.161Z,432.00
2022-12-03T11:59:59.153Z,412.00
2022-12-03T12:00:59.106Z,408.00
2022-12-03T12:01:59.050Z,408.00
2022-12-03T12:02:59.123Z,416.00
2022-12-03T12:03:59.020Z,424.00
2022-12-03T12:04:58.932Z,428.00
2022-12-03T12:05:58.894Z,432.00
2022-12-03T12:06:58.855Z,440.00
2022-12-03T12:07:58.924Z,452.00
2022-12-03T12:08:58.782Z,460.00
2022-12-03T12:09:58.816Z,460.00
2022-12-03T12:10:58.701Z,444.00
2022-12-03T12:11:58.664Z,428.00
2022-12-03T12:12:58.649Z,420.00
2022-12-03T12:13:58.588Z,412.00
2022-12-03T12:14:58.547Z,408.00
2022-12-03T12:15:58.571Z,404.00
2022-12-03T12:16:58.506Z,412.00
2022-12-03T12:17:58.433Z,420.00
2022-12-03T12:18:58.391Z,436.00
2022-12-03T12:19:58.601Z,456.00
2022-12-03T12:20:58.317Z,468.00
2022-12-03T12:21:58.275Z,468.00
2022-12-03T12:22:58.253Z,464.00
2022-12-03T12:23:58.203Z,448.00
2022-12-03T12:24:58.160Z,432.00
2022-12-03T12:25:58.121Z,416.00
2022-12-03T12:26:58.079Z,400.00
2022-12-03T12:27:58.039Z,388.00
2022-12-03T12:28:58.002Z,376.00
2022-12-03T12:29:58.216Z,364.00
2022-12-03T12:30:57.960Z,356.00
2022-12-03T12:31:57.945Z,352.00
2022-12-03T12:32:57.851Z,352.00
2022-12-03T12:33:57.809Z,348.00
2022-12-03T12:34:57.772Z,344.00
2022-12-03T12:35:57.734Z,344.00
2022-12-03T12:36:57.695Z,348.00
2022-12-03T12:37:59.976Z,348.00
2022-12-03T12:38:57.617Z,344.00
2022-12-03T12:39:57.585Z,332.00
2022-12-03T12:40:57.545Z,324.00
2022-12-03T12:41:57.510Z,320.00
2022-12-03T12:42:57.460Z,320.00
2022-12-03T12:43:57.428Z,324.00
2022-12-03T12:44:57.440Z,328.00
2022-12-03T12:45:57.348Z,320.00
2022-12-03T12:46:57.400Z,308.00
2022-12-03T12:47:57.279Z,292.00
2022-12-03T12:48:59.866Z,288.00
2022-12-03T12:49:57.754Z,284.00
2022-12-03T12:50:57.150Z,276.00
2022-12-03T12:51:57.205Z,272.00
2022-12-03T12:52:57.077Z,260.00
2022-12-03T12:53:57.038Z,256.00
2022-12-03T12:55:01.498Z,252.00
2022-12-03T12:55:56.973Z,252.00
2022-12-03T12:56:56.923Z,252.00
2022-12-03T12:57:56.885Z,256.00
2022-12-03T12:58:56.846Z,256.00